Time;durP1;ratioP1;P1;durP2;ratioP2;P2;SDS_P1;SDS_P2;PMS_P1;PMS_P2;Temp;Humidity;BMP_temperature;BMP_pressure;BME280_temperature;BME280_humidity;BME280_pressure;Samples;Min_cycle;Max_cycle;Signal;HPM_P1;HPM_P2
2021/11/20 00:02:28;;;;;;;10.77;6.40;;;;;;;11.46;95.23;102827.81;4994222;28;20061;-47
2021/11/20 00:04:57;;;;;;;10.90;6.22;;;;;;;11.45;95.19;102843.38;4993975;28;20042;-46
2021/11/20 00:07:25;;;;;;;9.55;6.57;;;;;;;11.44;94.95;102835.41;4994338;28;20134;-47
2021/11/20 00:09:52;;;;;;;10.68;6.60;;;;;;;11.48;95.22;102832.00;4993730;28;20038;-53
2021/11/20 00:12:26;;;;;;;8.18;5.80;;;;;;;11.48;95.14;102829.25;4993694;28;20514;-47
2021/11/20 00:14:54;;;;;;;9.23;6.82;;;;;;;11.47;95.36;102830.34;4993918;28;20046;-52
2021/11/20 00:17:22;;;;;;;10.10;6.82;;;;;;;11.46;94.81;102831.38;4993933;28;20039;-49
2021/11/20 00:19:51;;;;;;;12.15;7.18;;;;;;;11.46;95.06;102828.66;4994228;28;20072;-50
2021/11/20 00:22:21;;;;;;;9.18;6.80;;;;;;;11.46;94.46;102822.38;4993909;28;20034;-47
2021/11/20 00:24:51;;;;;;;9.52;6.70;;;;;;;11.46;94.38;102830.56;4993904;28;20401;-50
2021/11/20 00:27:27;;;;;;;9.45;7.05;;;;;;;11.45;94.35;102828.88;4993531;28;20051;-49
2021/11/20 00:30:01;;;;;;;10.63;6.65;;;;;;;11.46;94.34;102822.38;4992310;28;20510;-49
2021/11/20 00:32:35;;;;;;;9.13;6.95;;;;;;;11.48;94.10;102836.63;4992068;28;20050;-50
2021/11/20 00:35:16;;;;;;;11.32;7.97;;;;;;;11.47;93.81;102846.72;4992724;28;20053;-50
2021/11/20 00:37:44;;;;;;;9.45;5.75;;;;;;;11.48;94.03;102828.44;4993230;28;20038;-51
2021/11/20 00:40:17;;;;;;;8.48;6.03;;;;;;;11.50;94.10;102829.06;5008318;28;20069;-49
2021/11/20 00:42:45;;;;;;;9.57;6.45;;;;;;;11.51;93.35;102838.91;4993159;28;20038;-49
2021/11/20 00:45:13;;;;;;;11.07;5.63;;;;;;;11.49;93.38;102839.09;4993772;28;20047;-49
2021/11/20 00:47:40;;;;;;;9.80;7.25;;;;;;;11.50;93.40;102837.25;4992090;28;20053;-51
2021/11/20 00:50:09;;;;;;;8.40;5.03;;;;;;;11.51;93.54;102830.72;4993379;28;20501;-52
2021/11/20 00:52:37;;;;;;;9.15;6.53;;;;;;;11.51;93.09;102820.63;4992813;28;20146;-52
2021/11/20 00:55:05;;;;;;;10.27;7.47;;;;;;;11.52;92.79;102810.56;4993459;28;20129;-49
2021/11/20 00:57:33;;;;;;;10.63;8.10;;;;;;;11.49;92.12;102811.81;4993061;28;20046;-50
2021/11/20 01:00:01;;;;;;;10.32;8.05;;;;;;;11.47;91.87;102805.78;4991856;28;20516;-53
2021/11/20 01:02:28;;;;;;;10.45;8.10;;;;;;;11.45;91.67;102810.63;4991888;28;20122;-45
2021/11/20 01:04:58;;;;;;;12.20;8.77;;;;;;;11.45;92.10;102798.88;4995637;28;20069;-51
2021/11/20 01:07:25;;;;;;;10.63;8.52;;;;;;;11.44;91.76;102802.63;4997945;28;20100;-52
2021/11/20 01:09:53;;;;;;;10.52;8.43;;;;;;;11.44;91.30;102798.00;4996810;28;20048;-48
2021/11/20 01:12:25;;;;;;;10.27;8.20;;;;;;;11.45;91.89;102805.16;4993821;28;20042;-51
2021/11/20 01:14:54;;;;;;;11.13;8.88;;;;;;;11.45;91.52;102798.88;4992152;28;20038;-51
2021/11/20 01:17:26;;;;;;;11.07;8.98;;;;;;;11.45;91.06;102793.41;4978106;28;20413;-50
2021/11/20 01:19:54;;;;;;;12.13;8.57;;;;;;;11.45;90.66;102785.22;4992938;28;20038;-50
2021/11/20 01:22:42;;;;;;;13.15;8.68;;;;;;;11.45;90.27;102794.22;4991477;28;20053;-50
2021/11/20 01:25:13;;;;;;;9.70;7.72;;;;;;;11.46;90.67;102801.34;4992706;28;20066;-50
2021/11/20 01:28:04;;;;;;;9.68;7.68;;;;;;;11.51;90.98;102785.13;4991751;28;20052;-50
2021/11/20 01:30:56;;;;;;;13.60;10.15;;;;;;;11.49;90.07;102779.06;4991586;28;20057;-50
2021/11/20 01:33:34;;;;;;;12.77;10.55;;;;;;;11.47;89.45;102783.94;5008102;28;20404;-49
2021/11/20 01:36:03;;;;;;;13.80;10.07;;;;;;;11.47;89.72;102780.34;4991153;28;20410;-49
2021/11/20 01:38:31;;;;;;;12.95;10.63;;;;;;;11.45;89.37;102783.31;4992724;28;20050;-49
2021/11/20 01:41:10;;;;;;;9.70;7.60;;;;;;;11.52;90.75;102775.91;4991496;28;20049;-49
2021/11/20 01:43:58;;;;;;;13.63;11.23;;;;;;;11.54;90.69;102772.09;4993693;28;20049;-47
2021/11/20 01:46:30;;;;;;;13.27;11.10;;;;;;;11.51;89.97;102776.09;4995866;28;20190;-52
2021/11/20 01:49:21;;;;;;;14.73;13.13;;;;;;;11.49;89.14;102778.22;4996801;28;20039;-48
2021/11/20 01:51:57;;;;;;;14.52;12.65;;;;;;;11.43;89.22;102766.31;4995045;28;20125;-49
2021/11/20 01:54:37;;;;;;;16.13;13.57;;;;;;;11.44;89.84;102767.97;4993908;28;20046;-47
2021/11/20 01:57:43;;;;;;;10.05;8.57;;;;;;;11.50;90.97;102763.53;4973618;28;20056;-51
2021/11/20 02:00:19;;;;;;;16.52;13.68;;;;;;;11.50;89.11;102760.81;4995159;28;20652;-47
2021/11/20 02:02:59;;;;;;;17.73;14.98;;;;;;;11.46;89.65;102757.69;4996329;28;20046;-50
2021/11/20 02:05:54;;;;;;;15.52;13.70;;;;;;;11.45;88.85;102744.28;4995083;28;20066;-50
2021/11/20 02:08:53;;;;;;;18.52;13.68;;;;;;;11.43;89.31;102760.88;4994855;28;20464;-50
2021/11/20 02:11:26;;;;;;;16.35;14.52;;;;;;;11.43;90.01;102747.22;4994775;28;20516;-49
2021/11/20 02:13:55;;;;;;;18.23;15.07;;;;;;;11.44;89.70;102748.03;4996294;28;20035;-47
2021/11/20 02:16:29;;;;;;;18.65;15.95;;;;;;;11.43;90.07;102746.38;4994917;28;20089;-49
2021/11/20 02:19:00;;;;;;;19.83;14.45;;;;;;;11.44;90.00;102740.69;4994768;28;20050;-44
2021/11/20 02:21:51;;;;;;;16.38;14.65;;;;;;;11.45;90.06;102745.09;4994744;28;20066;-46
2021/11/20 02:24:19;;;;;;;20.23;16.02;;;;;;;11.45;90.00;102739.66;4995278;28;20082;-49
2021/11/20 02:27:14;;;;;;;17.52;12.60;;;;;;;11.48;90.56;102733.72;4993234;28;20112;-48
2021/11/20 02:29:46;;;;;;;20.40;18.20;;;;;;;11.47;90.46;102742.97;4994499;28;20058;-48
2021/11/20 02:32:37;;;;;;;21.23;18.30;;;;;;;11.44;90.13;102743.41;4994762;28;20571;-50
2021/11/20 02:35:18;;;;;;;17.55;14.15;;;;;;;11.44;90.84;102746.16;4994600;28;20441;-49
2021/11/20 02:37:47;;;;;;;20.63;18.25;;;;;;;11.43;90.00;102746.38;4994446;28;20043;-49
2021/11/20 02:40:16;;;;;;;21.50;17.88;;;;;;;11.41;90.69;102746.59;4994696;28;20402;-47
2021/11/20 02:42:46;;;;;;;22.58;18.23;;;;;;;11.41;90.53;102745.78;4995924;28;20054;-50
2021/11/20 02:45:30;;;;;;;18.58;15.73;;;;;;;11.40;90.82;102738.63;4994595;28;20129;-48
2021/11/20 02:47:59;;;;;;;14.05;11.15;;;;;;;11.43;90.24;102736.31;4994781;28;20051;-50
2021/11/20 02:50:39;;;;;;;21.13;18.48;;;;;;;11.46;90.46;102738.56;4993915;28;20473;-49
2021/11/20 02:53:07;;;;;;;;;;;;;;;11.44;91.04;102737.13;4995675;28;20065;-48
2021/11/20 02:55:35;;;;;;;12.98;10.38;;;;;;;11.47;91.01;102737.53;4994076;28;20372;-49
2021/11/20 02:58:03;;;;;;;21.08;17.73;;;;;;;11.45;90.29;102734.19;4994541;28;20050;-49
2021/11/20 03:00:30;;;;;;;21.85;18.83;;;;;;;11.42;90.69;102726.44;4994283;28;20046;-49
2021/11/20 03:03:00;;;;;;;21.85;17.35;;;;;;;11.43;90.66;102730.84;4995060;28;20444;-49
2021/11/20 03:05:28;;;;;;;23.73;19.13;;;;;;;11.41;90.15;102732.13;4994063;28;20050;-50
2021/11/20 03:07:56;;;;;;;23.48;19.63;;;;;;;11.43;90.22;102722.66;4994204;28;20445;-48
2021/11/20 03:10:23;;;;;;;25.10;20.02;;;;;;;11.40;89.23;102717.66;4994116;28;20043;-49
2021/11/20 03:12:51;;;;;;;20.90;17.77;;;;;;;11.42;89.55;102712.78;4994071;28;20077;-49
2021/11/20 03:15:20;;;;;;;25.65;20.10;;;;;;;11.38;90.03;102711.59;4994168;28;20584;-48
2021/11/20 03:17:50;;;;;;;24.75;20.55;;;;;;;11.39;89.60;102717.88;4993512;28;20780;-49
2021/11/20 03:20:19;;;;;;;22.85;19.27;;;;;;;11.39;89.97;102706.94;4993465;28;20050;-49
2021/11/20 03:23:01;;;;;;;20.70;14.95;;;;;;;11.40;89.58;102705.88;4993822;28;20096;-44
2021/11/20 03:25:29;;;;;;;23.85;20.20;;;;;;;11.40;89.81;102704.00;4995369;28;20042;-45
2021/11/20 03:27:58;;;;;;;25.13;21.98;;;;;;;11.40;89.95;102712.19;4994609;28;20074;-49
2021/11/20 03:30:26;;;;;;;26.50;21.63;;;;;;;11.39;89.91;102702.31;4993582;28;20061;-52
2021/11/20 03:32:54;;;;;;;27.08;23.38;;;;;;;11.37;89.75;102698.97;4993244;28;20042;-49
2021/11/20 03:35:25;;;;;;;28.83;23.67;;;;;;;11.35;89.80;102700.28;4993536;28;20050;-49
2021/11/20 03:37:56;;;;;;;30.55;24.85;;;;;;;11.33;88.83;102697.78;4993557;28;20046;-49
2021/11/20 03:40:28;;;;;;;30.70;26.25;;;;;;;11.33;88.48;102697.78;4993616;28;20050;-49
2021/11/20 03:42:56;;;;;;;32.55;27.02;;;;;;;11.32;88.82;102698.84;4993591;28;20042;-48
2021/11/20 03:45:26;;;;;;;34.95;27.63;;;;;;;11.32;88.50;102701.56;4979991;28;20497;-52
2021/11/20 03:47:56;;;;;;;31.67;24.05;;;;;;;11.33;88.75;102700.53;4993343;28;20101;-45
2021/11/20 03:50:25;;;;;;;32.97;28.35;;;;;;;11.33;88.38;102703.25;4994282;28;20050;-45
2021/11/20 03:52:53;;;;;;;32.95;28.45;;;;;;;11.32;88.56;102695.28;4977236;28;20093;-49
2021/11/20 03:55:26;;;;;;;34.67;27.90;;;;;;;11.31;88.44;102697.19;4994338;28;20049;-49
2021/11/20 03:57:54;;;;;;;37.22;29.30;;;;;;;11.30;88.41;102695.50;4992954;28;20460;-50
2021/11/20 04:00:25;;;;;;;34.60;27.58;;;;;;;11.31;87.64;102699.91;4993230;28;20050;-49
2021/11/20 04:02:53;;;;;;;33.63;27.45;;;;;;;11.30;87.98;102700.94;4994059;28;20092;-48
2021/11/20 04:05:22;;;;;;;36.05;29.40;;;;;;;11.31;88.49;102699.91;4992202;28;20505;-50
2021/11/20 04:07:50;;;;;;;38.83;29.58;;;;;;;11.29;88.26;102696.56;4992880;28;20038;-48
2021/11/20 04:10:19;;;;;;;37.10;29.38;;;;;;;11.29;87.44;102691.94;4993113;28;20054;-48
2021/11/20 04:12:50;;;;;;;36.85;30.90;;;;;;;11.29;87.90;102691.09;4992961;28;20061;-49
2021/11/20 04:15:21;;;;;;;35.13;28.40;;;;;;;11.29;88.29;102694.66;4992952;28;20054;-48
2021/11/20 04:17:49;;;;;;;39.60;31.13;;;;;;;11.30;87.63;102690.03;4992505;28;20050;-49
2021/11/20 04:20:21;;;;;;;34.78;27.75;;;;;;;11.30;88.24;102684.56;4992925;28;20046;-50
2021/11/20 04:22:49;;;;;;;42.58;32.42;;;;;;;11.30;88.33;102688.16;4992343;28;20540;-50
2021/11/20 04:25:22;;;;;;;38.28;30.98;;;;;;;11.30;89.04;102687.31;4992923;28;20042;-50
2021/11/20 04:27:56;;;;;;;38.50;31.30;;;;;;;11.27;88.51;102685.88;4979084;28;20401;-50
2021/11/20 04:30:42;;;;;;;38.33;30.67;;;;;;;11.27;88.94;102688.59;4992197;28;20525;-49
2021/11/20 04:33:11;;;;;;;39.67;31.50;;;;;;;11.27;88.89;102683.13;4993230;28;20081;-48
2021/11/20 04:35:40;;;;;;;36.78;30.70;;;;;;;11.27;89.65;102674.13;4992841;28;20050;-49
2021/11/20 04:38:09;;;;;;;36.63;29.90;;;;;;;11.27;89.37;102674.13;4992368;28;20046;-49
2021/11/20 04:40:39;;;;;;;38.88;31.85;;;;;;;11.26;89.75;102681.47;4992479;28;20053;-49
2021/11/20 04:43:08;;;;;;;40.67;33.08;;;;;;;11.26;90.32;102681.47;4992227;28;20076;-49
2021/11/20 04:45:38;;;;;;;45.05;31.45;;;;;;;11.28;90.72;102678.50;4992380;28;20041;-48
2021/11/20 04:48:07;;;;;;;38.47;31.75;;;;;;;11.28;89.83;102678.50;4993145;28;20038;-49
2021/11/20 04:50:50;;;;;;;40.20;31.33;;;;;;;11.27;89.80;102674.13;4992541;28;20030;-49
2021/11/20 04:53:19;;;;;;;41.30;32.58;;;;;;;11.26;90.51;102675.19;4992079;28;20038;-48
2021/11/20 04:55:48;;;;;;;43.35;33.05;;;;;;;11.28;91.04;102673.91;4993376;28;20061;-50
2021/11/20 04:58:16;;;;;;;39.70;32.38;;;;;;;11.28;90.42;102675.78;4993247;28;20453;-51
2021/11/20 05:00:48;;;;;;;42.28;32.80;;;;;;;11.26;90.38;102669.75;4993275;28;20038;-49
2021/11/20 05:03:21;;;;;;;41.58;33.22;;;;;;;11.26;90.88;102672.47;4991707;28;20118;-49
2021/11/20 05:05:51;;;;;;;40.15;31.98;;;;;;;11.25;90.57;102663.44;4992112;28;20129;-49
2021/11/20 05:08:20;;;;;;;40.55;31.90;;;;;;;11.25;90.40;102663.44;4992034;28;20046;-49
2021/11/20 05:10:52;;;;;;;37.75;31.20;;;;;;;11.26;90.44;102669.75;4991961;28;20046;-52
2021/11/20 05:13:23;;;;;;;40.05;32.58;;;;;;;11.24;90.05;102671.84;4991613;28;20046;-50
2021/11/20 05:15:54;;;;;;;36.58;29.13;;;;;;;11.24;90.33;102671.84;4991228;28;20092;-49
2021/11/20 05:18:23;;;;;;;33.95;25.80;;;;;;;11.25;90.10;102670.78;4992036;28;20038;-48
2021/11/20 05:20:59;;;;;;;29.40;23.10;;;;;;;11.28;90.92;102673.03;4991585;28;20509;-48
2021/11/20 05:23:34;;;;;;;29.23;22.00;;;;;;;11.30;90.69;102665.47;4991904;28;20061;-51
2021/11/20 05:26:03;;;;;;;38.72;30.13;;;;;;;11.29;89.72;102664.66;4991412;28;20047;-50
2021/11/20 05:28:30;;;;;;;35.53;28.55;;;;;;;11.27;89.67;102658.56;4991537;28;20050;-47
2021/11/20 05:31:00;;;;;;;36.00;27.38;;;;;;;11.28;89.46;102657.53;4991559;28;20050;-51
2021/11/20 05:33:41;;;;;;;36.35;30.10;;;;;;;11.25;89.12;102659.88;4991460;28;20121;-49
2021/11/20 05:36:12;;;;;;;32.05;26.67;;;;;;;11.22;88.04;102654.88;4992487;28;20066;-48
2021/11/20 05:38:41;;;;;;;35.05;27.65;;;;;;;11.21;87.13;102651.31;4991585;28;20057;-49
2021/11/20 05:41:09;;;;;;;30.52;26.13;;;;;;;11.19;87.07;102647.97;4992795;28;20125;-48
2021/11/20 05:43:44;;;;;;;31.25;26.75;;;;;;;11.18;86.13;102637.28;4992707;28;20121;-49
2021/11/20 05:46:25;;;;;;;34.75;25.73;;;;;;;11.18;85.66;102629.09;4991013;28;20129;-51
2021/11/20 05:48:55;;;;;;;28.63;24.38;;;;;;;11.17;86.23;102631.00;4991208;28;20046;-51
2021/11/20 05:51:23;;;;;;;23.35;20.80;;;;;;;11.18;85.70;102634.56;4992863;28;20050;-48
2021/11/20 05:53:52;;;;;;;30.17;26.42;;;;;;;11.20;85.96;102632.44;4991319;28;20050;-48
2021/11/20 05:56:20;;;;;;;20.85;18.08;;;;;;;11.22;86.01;102625.69;4991142;28;20046;-46
2021/11/20 05:59:09;;;;;;;27.83;24.77;;;;;;;11.22;85.06;102620.22;4991111;28;20050;-48
2021/11/20 06:01:39;;;;;;;29.88;26.15;;;;;;;11.21;85.33;102615.84;4991094;28;20046;-49
2021/11/20 06:04:07;;;;;;;35.28;29.50;;;;;;;11.20;84.67;102618.78;4987715;28;20101;-44
2021/11/20 06:06:35;;;;;;;33.08;29.08;;;;;;;11.19;84.34;102617.13;4991275;28;20383;-45
2021/11/20 06:09:04;;;;;;;36.65;31.52;;;;;;;11.17;83.66;102616.53;4992301;28;20054;-45
2021/11/20 06:11:34;;;;;;;41.30;35.47;;;;;;;11.14;83.59;102615.09;4990934;28;20038;-44
2021/11/20 06:14:03;;;;;;;43.83;36.03;;;;;;;11.11;83.50;102607.34;4974707;28;20073;-45
2021/11/20 06:16:37;;;;;;;44.00;37.22;;;;;;;11.09;83.47;102602.13;4991267;28;20070;-46
2021/11/20 06:19:06;;;;;;;49.83;38.95;;;;;;;11.08;83.52;102602.34;4991303;28;20038;-44
2021/11/20 06:21:35;;;;;;;47.20;40.33;;;;;;;11.05;83.21;102602.81;4991010;28;20077;-45
2021/11/20 06:24:05;;;;;;;53.60;43.38;;;;;;;11.03;83.41;102599.47;4991318;28;20052;-48
2021/11/20 06:26:35;;;;;;;50.50;43.10;;;;;;;11.04;83.79;102603.84;4990554;28;20089;-50
2021/11/20 06:29:05;;;;;;;52.95;42.28;;;;;;;11.06;84.23;102604.47;4992911;28;20141;-49
2021/11/20 06:31:33;;;;;;;51.38;40.08;;;;;;;11.08;83.60;102600.44;4994713;28;20125;-46
2021/11/20 06:34:24;;;;;;;54.92;44.33;;;;;;;11.10;83.30;102597.50;4985101;28;20066;-50
2021/11/20 06:37:11;;;;;;;48.92;39.72;;;;;;;11.11;83.17;102595.59;4994582;28;20053;-48
2021/11/20 06:39:55;;;;;;;53.35;42.67;;;;;;;11.12;83.45;102602.75;4994261;28;20125;-52
2021/11/20 06:42:22;;;;;;;50.97;42.05;;;;;;;11.11;83.26;102599.16;4995582;28;20042;-49
2021/11/20 06:44:52;;;;;;;50.10;41.42;;;;;;;11.10;83.58;102605.69;4995567;28;20137;-44
2021/11/20 06:47:19;;;;;;;48.47;38.78;;;;;;;11.11;83.40;102603.78;4994824;28;20490;-49
2021/11/20 06:49:47;;;;;;;44.75;37.92;;;;;;;11.11;83.53;102601.88;4995810;28;20145;-50
2021/11/20 06:52:15;;;;;;;45.28;37.80;;;;;;;11.09;83.75;102604.84;4994755;28;20487;-52
2021/11/20 06:55:01;;;;;;;44.45;37.63;;;;;;;11.08;83.41;102603.19;4995339;28;20050;-45
2021/11/20 06:57:54;;;;;;;38.08;33.92;;;;;;;11.09;83.98;102599.41;4995079;28;20026;-47
2021/11/20 07:00:57;;;;;;;42.15;37.30;;;;;;;11.09;83.00;102593.94;4954503;29;20098;-48
2021/11/20 07:03:50;;;;;;;36.15;32.25;;;;;;;11.10;83.78;102594.78;4954154;29;20071;-45
2021/11/20 07:06:20;;;;;;;27.30;23.40;;;;;;;11.13;84.04;102594.31;4938480;29;20051;-49
2021/11/20 07:08:49;;;;;;;40.20;34.45;;;;;;;11.13;83.74;102599.78;4954191;29;20059;-48
2021/11/20 07:11:19;;;;;;;30.42;26.33;;;;;;;11.13;83.78;102602.50;4938096;29;20039;-49
2021/11/20 07:13:49;;;;;;;34.47;30.83;;;;;;;11.13;83.50;102597.03;4954090;29;20457;-49
2021/11/20 07:16:19;;;;;;;34.30;30.70;;;;;;;11.15;83.74;102596.81;4950768;29;20086;-49
2021/11/20 07:18:48;;;;;;;34.08;30.48;;;;;;;11.17;83.36;102594.69;4945785;28;20055;-48
2021/11/20 07:21:34;;;;;;;32.63;29.38;;;;;;;11.11;82.69;102585.50;4954004;29;20050;-49
2021/11/20 07:24:25;;;;;;;34.28;30.77;;;;;;;11.06;83.05;102588.09;4915282;29;20052;-45
2021/11/20 07:26:53;;;;;;;36.67;32.75;;;;;;;11.05;82.51;102584.53;4915283;29;20060;-46
2021/11/20 07:29:21;;;;;;;35.08;31.38;;;;;;;11.05;82.83;102592.72;4899777;29;20182;-49
2021/11/20 07:31:59;;;;;;;36.67;31.95;;;;;;;11.05;83.52;102590.00;4915801;29;20499;-48
2021/11/20 07:34:28;;;;;;;31.27;28.13;;;;;;;11.09;83.51;102590.41;4915528;29;20059;-48
2021/11/20 07:36:59;;;;;;;34.53;31.00;;;;;;;11.08;83.25;102591.44;4941369;29;20130;-48
2021/11/20 07:39:28;;;;;;;32.80;29.30;;;;;;;11.09;83.61;102588.50;4953608;29;20074;-49
2021/11/20 07:41:56;;;;;;;35.33;31.67;;;;;;;11.08;83.56;102586.81;4952283;28;20047;-49
2021/11/20 07:44:25;;;;;;;34.35;30.77;;;;;;;11.06;83.63;102577.19;4937699;29;20134;-48
2021/11/20 07:46:54;;;;;;;34.60;31.10;;;;;;;11.07;82.76;102585.16;4953468;29;20043;-50
2021/11/20 07:49:28;;;;;;;35.60;31.85;;;;;;;11.04;83.77;102593.81;4953619;28;20098;-48
2021/11/20 07:51:56;;;;;;;38.70;32.22;;;;;;;11.02;83.54;102590.47;4953261;29;20614;-45
2021/11/20 07:54:24;;;;;;;37.88;32.25;;;;;;;11.03;83.35;102594.84;4953267;29;20075;-48
2021/11/20 07:57:10;;;;;;;37.28;31.63;;;;;;;11.01;83.73;102588.78;4952846;28;20122;-48
2021/11/20 07:59:39;;;;;;;37.15;31.85;;;;;;;11.02;83.76;102592.38;4953473;29;20126;-48
2021/11/20 08:02:32;;;;;;;36.42;32.40;;;;;;;11.03;83.38;102594.03;4990974;28;20493;-49
2021/11/20 08:05:02;;;;;;;37.05;32.30;;;;;;;11.03;83.55;102583.09;4993047;28;20501;-46
2021/11/20 08:07:59;;;;;;;36.90;30.90;;;;;;;11.01;83.63;102583.31;4933715;29;20055;-48
2021/11/20 08:10:48;;;;;;;34.40;30.35;;;;;;;11.03;83.91;102578.47;4930025;29;20064;-49
2021/11/20 08:13:17;;;;;;;38.92;32.92;;;;;;;11.03;83.97;102572.19;4918223;29;20140;-46
2021/11/20 08:15:56;;;;;;;36.00;31.20;;;;;;;11.07;83.68;102563.34;4933584;29;20055;-48
2021/11/20 08:18:43;;;;;;;31.77;26.80;;;;;;;11.11;83.64;102557.41;4933918;29;20044;-47
2021/11/20 08:21:28;;;;;;;39.00;32.47;;;;;;;11.06;83.63;102547.19;4933775;29;20127;-45
2021/11/20 08:24:07;;;;;;;34.70;27.60;;;;;;;11.04;84.48;102552.88;4933404;29;20051;-46
2021/11/20 08:26:36;;;;;;;28.80;23.48;;;;;;;11.10;83.87;102556.59;4917248;29;20040;-48
2021/11/20 08:29:07;;;;;;;47.28;36.47;;;;;;;11.13;83.59;102541.66;4933806;29;20055;-48
2021/11/20 08:31:39;;;;;;;50.15;38.15;;;;;;;11.11;83.38;102541.03;4933443;29;20048;-48
2021/11/20 08:34:21;;;;;;;48.03;39.10;;;;;;;11.11;83.88;102536.41;4933498;29;20047;-48
2021/11/20 08:37:00;;;;;;;49.20;38.22;;;;;;;11.11;84.02;102530.94;4917379;29;20047;-50
2021/11/20 08:39:56;;;;;;;47.30;38.80;;;;;;;11.11;83.87;102530.13;4931915;29;20074;-48
2021/11/20 08:42:24;;;;;;;42.13;34.58;;;;;;;11.11;84.01;102516.50;4933541;29;20052;-49
2021/11/20 08:44:53;;;;;;;42.20;33.22;;;;;;;11.12;84.09;102516.28;4982507;28;20112;-49
2021/11/20 08:47:27;;;;;;;40.97;33.05;;;;;;;11.12;83.67;102507.25;4992406;28;20053;-46
2021/11/20 08:49:55;;;;;;;40.80;31.25;;;;;;;11.12;83.77;102520.91;4992085;28;20049;-48
2021/11/20 08:52:23;;;;;;;38.10;31.48;;;;;;;11.11;83.42;102520.03;4991741;28;20051;-48
2021/11/20 08:54:56;;;;;;;36.05;30.50;;;;;;;11.08;83.94;102524.06;4991651;28;20081;-49
2021/11/20 08:57:25;;;;;;;38.10;30.92;;;;;;;11.08;83.70;102523.25;4992032;28;20390;-47
2021/11/20 09:00:10;;;;;;;30.67;22.83;;;;;;;11.11;83.62;102514.59;4992013;28;20069;-48
2021/11/20 09:03:43;;;;;;;28.92;21.27;;;;;;;11.19;84.64;102508.84;4932902;29;20103;-49
2021/11/20 09:06:18;;;;;;;29.77;23.65;;;;;;;11.21;84.47;102508.63;4932499;29;20083;-49
2021/11/20 09:09:00;;;;;;;31.05;26.10;;;;;;;11.21;84.27;102512.16;4917106;29;20554;-48
2021/11/20 09:11:49;;;;;;;37.22;29.42;;;;;;;11.21;84.16;102511.34;4933133;29;20048;-49
2021/11/20 09:14:19;;;;;;;25.77;20.63;;;;;;;11.31;87.18;102508.88;4932642;29;20055;-49
2021/11/20 09:17:03;;;;;;;36.47;28.92;;;;;;;11.27;85.25;102503.03;4917142;29;20120;-49
2021/11/20 09:19:33;;;;;;;24.80;20.38;;;;;;;11.26;85.10;102504.13;4932849;29;20503;-47
2021/11/20 09:22:03;;;;;;;31.38;26.42;;;;;;;11.29;85.66;102500.09;4916892;29;20121;-51
2021/11/20 09:24:43;;;;;;;20.08;16.70;;;;;;;11.26;84.96;102497.84;4916653;29;20067;-53
2021/11/20 09:27:35;;;;;;;22.70;18.20;;;;;;;11.28;85.93;102490.22;4916824;29;20546;-48
2021/11/20 09:30:10;;;;;;;22.40;19.85;;;;;;;11.33;87.45;102489.53;4916605;29;20573;-49
2021/11/20 09:32:39;;;;;;;28.30;25.30;;;;;;;11.31;85.76;102495.25;4932835;29;20146;-49
2021/11/20 09:35:16;;;;;;;28.35;23.52;;;;;;;11.28;85.60;102498.41;4917898;29;20134;-45
2021/11/20 09:38:05;;;;;;;26.33;23.50;;;;;;;11.23;84.97;102496.41;4932205;29;20036;-49
2021/11/20 09:40:37;;;;;;;25.13;22.38;;;;;;;11.23;85.40;102498.28;4983130;28;20497;-49
2021/11/20 09:43:29;;;;;;;29.15;24.65;;;;;;;11.23;86.00;102499.13;4977749;28;20049;-52
2021/11/20 09:46:29;;;;;;;24.40;20.75;;;;;;;11.25;85.70;102496.16;4975518;28;20078;-49
2021/11/20 09:49:03;;;;;;;13.30;10.88;;;;;;;11.31;88.54;102495.25;4995481;28;20101;-46
2021/11/20 09:51:39;;;;;;;28.42;25.25;;;;;;;11.27;85.77;102497.59;4990957;28;20460;-48
2021/11/20 09:54:17;;;;;;;31.42;25.77;;;;;;;11.22;86.05;102496.63;4991648;28;20109;-49
2021/11/20 09:57:20;;;;;;;29.08;21.13;;;;;;;11.27;86.68;102497.59;4992474;28;20043;-48
2021/11/20 09:59:58;;;;;;;20.42;15.82;;;;;;;11.36;87.69;102489.09;4992725;28;20038;-48
2021/11/20 10:02:44;;;;;;;28.73;23.73;;;;;;;11.27;85.90;102486.66;4991120;28;20034;-50
2021/11/20 10:05:19;;;;;;;29.40;25.35;;;;;;;11.22;85.83;102488.44;4995338;28;20085;-46
2021/11/20 10:07:50;;;;;;;25.52;22.25;;;;;;;11.22;85.54;102488.44;4996139;28;20054;-45
2021/11/20 10:10:52;;;;;;;25.52;21.20;;;;;;;11.18;85.53;102481.75;4996326;28;20489;-49
2021/11/20 10:13:28;;;;;;;28.90;23.83;;;;;;;11.19;86.54;102476.09;4951782;28;20513;-49
2021/11/20 10:15:58;;;;;;;22.35;17.00;;;;;;;11.21;85.77;102470.41;4934580;29;20049;-50
2021/11/20 10:18:28;;;;;;;28.80;24.77;;;;;;;11.21;85.91;102471.25;4955085;29;20051;-48
2021/11/20 10:21:16;;;;;;;29.38;23.63;;;;;;;11.21;86.11;102467.69;4954731;29;20045;-50
2021/11/20 10:24:27;;;;;;;23.35;19.58;;;;;;;11.25;86.58;102466.13;4954868;29;20078;-49
2021/11/20 10:27:29;;;;;;;31.60;24.13;;;;;;;11.33;87.19;102471.28;4951399;28;20156;-50
2021/11/20 10:30:35;;;;;;;28.38;24.25;;;;;;;11.35;86.75;102455.47;4931689;29;20110;-51
2021/11/20 10:33:09;;;;;;;30.83;24.42;;;;;;;11.29;87.01;102453.69;4954546;29;20106;-46
2021/11/20 10:35:42;;;;;;;21.77;17.23;;;;;;;11.35;87.90;102452.75;4954511;29;20079;-49
2021/11/20 10:38:19;;;;;;;26.02;21.90;;;;;;;11.39;88.37;102455.88;4954801;28;20051;-52
2021/11/20 10:40:59;;;;;;;29.23;19.65;;;;;;;11.43;88.87;102446.97;4951578;28;20079;-50
2021/11/20 10:43:37;;;;;;;25.23;21.05;;;;;;;11.43;88.89;102446.97;4952754;29;20047;-49
2021/11/20 10:46:18;;;;;;;27.58;23.63;;;;;;;11.38;88.44;102444.13;4954725;29;20058;-48
2021/11/20 10:49:24;;;;;;;26.90;22.70;;;;;;;11.33;87.95;102452.19;4955538;28;20044;-48
2021/11/20 10:51:58;;;;;;;26.98;21.42;;;;;;;11.32;88.56;102433.31;4991682;28;20054;-50
2021/11/20 10:54:54;;;;;;;30.08;24.05;;;;;;;11.30;88.17;102436.25;4995677;28;20134;-51
2021/11/20 10:57:45;;;;;;;31.38;24.20;;;;;;;11.30;88.64;102426.19;4995432;28;20054;-44
2021/11/20 11:00:35;;;;;;;28.60;22.67;;;;;;;11.43;89.57;102419.69;4995444;28;20046;-48
2021/11/20 11:03:11;;;;;;;19.75;16.55;;;;;;;11.46;90.71;102419.22;4994080;28;20046;-46
2021/11/20 11:05:42;;;;;;;26.98;23.38;;;;;;;11.40;89.68;102417.44;4994933;28;20074;-50
2021/11/20 11:08:37;;;;;;;15.10;12.25;;;;;;;11.45;92.30;102412.09;4994935;28;20054;-52
2021/11/20 11:11:18;;;;;;;30.73;25.13;;;;;;;11.50;90.62;102409.50;4995276;28;20038;-50
2021/11/20 11:14:26;;;;;;;31.30;24.83;;;;;;;11.42;90.93;102407.09;4994447;28;20069;-51
2021/11/20 11:17:18;;;;;;;25.77;21.60;;;;;;;11.53;92.98;102400.00;4995034;28;20054;-49
2021/11/20 11:20:19;;;;;;;28.85;23.85;;;;;;;11.40;90.43;102395.59;4995008;28;20040;-51
2021/11/20 11:23:25;;;;;;;27.98;22.73;;;;;;;11.31;90.24;102391.53;4994907;28;20409;-50
2021/11/20 11:26:05;;;;;;;16.58;12.95;;;;;;;11.31;90.35;102377.91;4993731;28;20416;-50
2021/11/20 11:28:44;;;;;;;30.48;22.35;;;;;;;11.26;90.12;102380.50;4994804;28;20508;-50
2021/11/20 11:31:33;;;;;;;27.30;21.75;;;;;;;11.31;90.21;102383.34;4994605;28;20485;-50
2021/11/20 11:34:08;;;;;;;19.67;16.55;;;;;;;11.29;90.47;102380.84;4994853;28;20053;-51
2021/11/20 11:36:46;;;;;;;26.60;20.98;;;;;;;11.24;89.78;102377.19;4993400;28;20046;-50
2021/11/20 11:39:27;;;;;;;24.98;21.52;;;;;;;11.21;90.70;102372.19;4993645;28;20051;-51
2021/11/20 11:42:16;;;;;;;;;;;;;;;11.22;90.68;102371.13;4995334;28;20057;-50
2021/11/20 11:45:08;;;;;;;11.93;9.35;;;;;;;11.30;91.58;102360.69;4993404;28;19972;-52
2021/11/20 11:47:52;;;;;;;22.80;18.30;;;;;;;11.32;91.89;102346.81;4994173;28;20042;-50
2021/11/20 11:50:27;;;;;;;26.42;21.25;;;;;;;11.31;90.66;102345.16;4994384;28;20697;-52
2021/11/20 11:53:14;;;;;;;19.48;16.17;;;;;;;11.30;90.10;102343.47;4994231;28;20045;-50